createdAt,value
2018-07-23T00:02:02.802Z,16.40
2018-07-23T00:04:31.231Z,16.30
2018-07-23T00:06:59.645Z,16.30
2018-07-23T00:09:28.066Z,16.30
2018-07-23T00:11:56.474Z,16.30
2018-07-23T00:14:24.925Z,16.20
2018-07-23T00:16:53.358Z,16.20
2018-07-23T00:19:21.775Z,16.10
2018-07-23T00:21:50.190Z,16.00
2018-07-23T00:24:18.634Z,15.90
2018-07-23T00:26:47.041Z,15.90
2018-07-23T00:29:15.481Z,15.80
2018-07-23T00:31:43.914Z,15.70
2018-07-23T00:34:12.350Z,15.60
2018-07-23T00:36:40.765Z,15.70
2018-07-23T00:39:09.240Z,15.80
2018-07-23T00:44:06.413Z,15.70
2018-07-23T00:46:34.862Z,15.60
2018-07-23T00:49:03.301Z,15.50
2018-07-23T00:51:31.750Z,15.50
2018-07-23T00:54:00.161Z,15.50
2018-07-23T00:56:28.670Z,15.50
2018-07-23T00:58:57.099Z,15.50
2018-07-23T01:01:25.557Z,15.40
2018-07-23T01:06:22.097Z,15.40
2018-07-23T01:08:50.513Z,15.30
2018-07-23T01:11:18.945Z,15.20
2018-07-23T01:13:47.420Z,15.30
2018-07-23T01:16:15.904Z,15.30
2018-07-23T01:18:44.339Z,15.30
2018-07-23T01:21:12.789Z,15.30
2018-07-23T01:23:41.210Z,15.30
2018-07-23T01:26:09.669Z,15.30
2018-07-23T01:28:38.137Z,15.30
2018-07-23T01:31:06.909Z,15.20
2018-07-23T01:33:35.338Z,15.20
2018-07-23T01:36:03.787Z,15.10
2018-07-23T01:38:32.237Z,15.20
2018-07-23T01:41:00.657Z,15.20
2018-07-23T01:43:29.101Z,15.00
2018-07-23T01:45:57.605Z,15.00
2018-07-23T01:48:28.045Z,14.90
2018-07-23T01:50:56.490Z,14.80
2018-07-23T01:53:24.969Z,14.80
2018-07-23T01:55:53.416Z,14.80
2018-07-23T01:58:21.852Z,14.80
2018-07-23T02:00:50.289Z,14.80
2018-07-23T02:03:18.707Z,14.80
2018-07-23T02:05:47.165Z,14.80
2018-07-23T02:08:15.619Z,14.80
2018-07-23T02:10:44.054Z,14.70
2018-07-23T02:13:12.502Z,14.60
2018-07-23T02:15:40.944Z,14.60
2018-07-23T02:18:09.424Z,14.60
2018-07-23T02:20:37.894Z,14.60
2018-07-23T02:23:06.353Z,14.40
2018-07-23T02:25:34.830Z,14.40
2018-07-23T02:28:03.290Z,14.40
2018-07-23T02:32:59.905Z,14.30
2018-07-23T02:35:28.364Z,14.20
2018-07-23T02:37:56.818Z,14.20
2018-07-23T02:40:25.283Z,14.10
2018-07-23T02:42:54.275Z,14.10
2018-07-23T02:45:22.738Z,14.20
2018-07-23T02:47:51.214Z,14.20
2018-07-23T02:50:19.658Z,14.10
2018-07-23T02:52:48.213Z,14.10
2018-07-23T02:55:16.704Z,14.20
2018-07-23T02:57:45.154Z,14.10
2018-07-23T03:00:13.673Z,14.00
2018-07-23T03:02:42.106Z,14.00
2018-07-23T03:05:10.590Z,13.90
2018-07-23T03:07:39.062Z,13.90
2018-07-23T03:10:07.630Z,13.90
2018-07-23T03:12:36.117Z,13.90
2018-07-23T03:15:05.630Z,13.80
2018-07-23T03:17:34.090Z,13.80
2018-07-23T03:20:02.523Z,13.70
2018-07-23T03:22:31.002Z,13.70
2018-07-23T03:24:59.441Z,13.70
2018-07-23T03:27:27.869Z,13.60
2018-07-23T03:29:56.317Z,13.60
2018-07-23T03:32:24.786Z,13.60
2018-07-23T03:34:53.258Z,13.70
2018-07-23T03:37:21.705Z,13.70
2018-07-23T03:39:50.142Z,13.60
2018-07-23T03:42:18.569Z,13.60
2018-07-23T03:44:47.041Z,13.50
2018-07-23T03:47:15.474Z,13.50
2018-07-23T03:49:43.910Z,13.50
2018-07-23T03:52:12.354Z,13.50
2018-07-23T03:54:40.867Z,13.50
2018-07-23T03:57:09.309Z,13.50
2018-07-23T03:59:37.789Z,13.50
2018-07-23T04:02:07.427Z,13.50
2018-07-23T04:04:35.934Z,13.50
2018-07-23T04:07:04.394Z,13.40
2018-07-23T04:09:32.858Z,13.60
2018-07-23T04:12:01.314Z,13.60
2018-07-23T04:14:29.745Z,13.60
2018-07-23T04:17:00.474Z,13.70
2018-07-23T04:19:28.951Z,13.80
2018-07-23T04:21:57.394Z,13.90
2018-07-23T04:24:25.834Z,14.00
2018-07-23T04:26:54.270Z,14.00
2018-07-23T04:29:22.762Z,14.20
2018-07-23T04:31:51.223Z,14.10
2018-07-23T04:34:19.670Z,14.20
2018-07-23T04:36:48.110Z,14.20
2018-07-23T04:39:16.550Z,14.30
2018-07-23T04:41:45.000Z,14.30
2018-07-23T04:44:13.428Z,14.30
2018-07-23T04:46:41.885Z,14.40
2018-07-23T04:49:10.404Z,14.50
2018-07-23T04:51:38.858Z,14.60
2018-07-23T04:54:07.305Z,14.70
2018-07-23T04:56:35.774Z,14.80
2018-07-23T04:59:04.321Z,14.90
2018-07-23T05:01:32.818Z,14.90
2018-07-23T05:04:01.262Z,15.10
2018-07-23T05:06:29.692Z,15.00
2018-07-23T05:08:58.138Z,15.00
2018-07-23T05:11:26.569Z,15.20
2018-07-23T05:13:54.998Z,15.40
2018-07-23T05:16:23.442Z,15.60
2018-07-23T05:18:51.897Z,16.10
2018-07-23T05:21:20.326Z,16.60
2018-07-23T05:23:48.797Z,17.30
2018-07-23T05:26:17.253Z,17.90
2018-07-23T05:28:45.658Z,18.40
2018-07-23T05:31:14.083Z,19.10
2018-07-23T05:33:42.505Z,19.40
2018-07-23T05:36:10.987Z,19.80
2018-07-23T05:38:39.472Z,20.20
2018-07-23T05:41:07.896Z,20.50
2018-07-23T05:43:36.350Z,20.50
2018-07-23T05:46:04.818Z,20.80
2018-07-23T05:48:33.261Z,21.40
2018-07-23T05:51:01.714Z,21.40
2018-07-23T05:53:30.169Z,21.70
2018-07-23T05:55:58.633Z,22.00
2018-07-23T05:58:27.149Z,22.40
2018-07-23T06:00:55.624Z,22.10
2018-07-23T06:03:24.067Z,22.40
2018-07-23T06:05:52.485Z,22.60
2018-07-23T06:08:20.946Z,22.90
2018-07-23T06:10:49.385Z,23.00
2018-07-23T06:13:17.821Z,22.90
2018-07-23T06:15:46.297Z,23.50
2018-07-23T06:18:14.760Z,23.50
2018-07-23T06:20:43.205Z,23.90
2018-07-23T06:23:11.645Z,24.60
2018-07-23T06:25:40.144Z,24.60
2018-07-23T06:28:08.634Z,24.60
2018-07-23T06:30:37.082Z,25.60
2018-07-23T06:33:05.625Z,25.40
2018-07-23T06:35:34.062Z,26.00
2018-07-23T06:38:02.510Z,26.30
2018-07-23T06:40:31.010Z,26.50
2018-07-23T06:42:59.544Z,26.40
2018-07-23T06:45:27.997Z,26.50
2018-07-23T06:47:56.433Z,26.80
2018-07-23T06:50:24.880Z,26.90
2018-07-23T06:52:53.301Z,27.60
2018-07-23T06:55:21.738Z,28.20
2018-07-23T06:57:50.172Z,28.60
2018-07-23T07:00:18.642Z,28.70
2018-07-23T07:02:47.066Z,28.50
2018-07-23T07:05:15.517Z,28.60
2018-07-23T07:10:12.131Z,28.50
2018-07-23T07:12:40.566Z,29.00
2018-07-23T07:15:09.106Z,29.20
2018-07-23T07:17:37.563Z,29.90
2018-07-23T07:20:06.000Z,29.80
2018-07-23T07:22:34.421Z,29.50
2018-07-23T07:25:02.897Z,29.80
2018-07-23T07:27:31.337Z,30.30
2018-07-23T07:29:59.781Z,29.80
2018-07-23T07:32:28.198Z,30.00
2018-07-23T07:34:56.633Z,30.50
2018-07-23T07:37:25.091Z,30.40
2018-07-23T07:39:53.525Z,30.00
2018-07-23T07:42:21.966Z,30.70
2018-07-23T07:44:50.522Z,31.30
2018-07-23T07:47:18.995Z,32.00
2018-07-23T07:49:49.183Z,31.30
2018-07-23T07:52:19.102Z,31.40
2018-07-23T07:54:47.594Z,31.60
2018-07-23T07:57:16.029Z,31.70
2018-07-23T07:59:44.494Z,31.60
2018-07-23T08:02:12.941Z,31.90
2018-07-23T08:04:41.370Z,30.50
2018-07-23T08:07:09.815Z,31.70
2018-07-23T08:09:38.261Z,32.30
2018-07-23T08:12:06.732Z,33.40
2018-07-23T08:14:35.186Z,34.10
2018-07-23T08:17:03.618Z,34.50
2018-07-23T08:19:32.043Z,34.60
2018-07-23T08:22:00.474Z,33.20
2018-07-23T08:24:28.932Z,33.20
2018-07-23T08:26:57.373Z,33.50
2018-07-23T08:29:25.909Z,33.00
2018-07-23T08:31:54.434Z,32.80
2018-07-23T08:34:23.143Z,32.20
2018-07-23T08:36:51.602Z,32.90
2018-07-23T08:39:25.077Z,32.80
2018-07-23T08:41:53.709Z,33.20
2018-07-23T08:44:22.201Z,33.80
2018-07-23T08:46:50.669Z,33.10
2018-07-23T08:49:19.098Z,34.00
2018-07-23T08:51:47.522Z,33.60
2018-07-23T08:54:15.985Z,32.90
2018-07-23T08:56:44.422Z,33.60
2018-07-23T08:59:12.838Z,33.40
2018-07-23T09:01:41.381Z,33.20
2018-07-23T09:04:09.826Z,34.10
2018-07-23T09:06:38.288Z,33.20
2018-07-23T09:09:09.232Z,33.50
2018-07-23T09:11:37.669Z,33.10
2018-07-23T09:14:06.623Z,33.70
2018-07-23T09:16:35.177Z,32.90
2018-07-23T09:19:03.730Z,33.50
2018-07-23T09:21:33.269Z,32.20
2018-07-23T09:24:01.698Z,32.90
2018-07-23T09:26:30.155Z,32.20
2018-07-23T09:28:58.614Z,33.10
2018-07-23T09:31:27.067Z,34.00
2018-07-23T09:33:55.497Z,33.30
2018-07-23T09:36:23.928Z,33.60
2018-07-23T09:38:52.386Z,34.10
2018-07-23T09:41:20.830Z,33.50
2018-07-23T09:43:49.249Z,32.70
2018-07-23T09:46:17.675Z,31.70
2018-07-23T09:48:46.110Z,32.00
2018-07-23T09:51:14.568Z,32.80
2018-07-23T09:53:43.055Z,34.20
2018-07-23T09:56:11.486Z,33.80
2018-07-23T09:58:40.002Z,33.10
2018-07-23T10:01:11.455Z,32.30
2018-07-23T10:03:40.450Z,31.10
2018-07-23T10:06:08.818Z,31.00
2018-07-23T10:08:37.253Z,30.60
2018-07-23T10:11:05.726Z,30.20
2018-07-23T10:13:34.149Z,30.60
2018-07-23T10:16:02.602Z,31.40
2018-07-23T10:18:31.048Z,31.30
2018-07-23T10:20:59.487Z,31.40
2018-07-23T10:23:27.942Z,31.30
2018-07-23T10:25:56.377Z,31.70
2018-07-23T10:28:24.818Z,31.50
2018-07-23T10:30:53.253Z,31.10
2018-07-23T10:33:21.709Z,31.30
2018-07-23T10:35:50.137Z,31.40
2018-07-23T10:38:18.564Z,31.80
2018-07-23T10:40:47.014Z,31.30
2018-07-23T10:43:15.449Z,31.90
2018-07-23T10:45:43.933Z,33.20
2018-07-23T10:48:12.362Z,33.70
2018-07-23T10:50:40.834Z,33.60
2018-07-23T10:53:09.278Z,34.00
2018-07-23T10:55:37.741Z,33.50
2018-07-23T10:58:08.942Z,33.50
2018-07-23T11:00:37.442Z,33.60
2018-07-23T11:03:05.956Z,32.90
2018-07-23T11:05:34.385Z,32.60
2018-07-23T11:08:02.833Z,33.20
2018-07-23T11:10:31.298Z,33.10
2018-07-23T11:12:59.997Z,33.70
2018-07-23T11:15:28.438Z,33.50
2018-07-23T11:17:56.870Z,32.20
2018-07-23T11:22:53.530Z,34.00
2018-07-23T11:25:38.978Z,34.30
2018-07-23T11:27:50.798Z,34.30
2018-07-23T11:30:19.438Z,33.20
2018-07-23T11:32:47.869Z,31.70
2018-07-23T11:35:16.302Z,31.10
2018-07-23T11:37:44.723Z,31.80
2018-07-23T11:40:13.168Z,32.80
2018-07-23T11:42:41.695Z,33.40
2018-07-23T11:45:10.177Z,33.50
2018-07-23T11:47:38.618Z,33.80
2018-07-23T11:50:07.078Z,32.80
2018-07-23T11:52:35.517Z,33.50
2018-07-23T11:55:04.014Z,33.70
2018-07-23T11:57:32.445Z,34.00
2018-07-23T12:00:01.062Z,34.50
2018-07-23T12:02:29.479Z,35.80
2018-07-23T12:04:57.942Z,35.50
2018-07-23T12:07:26.442Z,33.30
2018-07-23T12:09:54.922Z,33.00
2018-07-23T12:12:23.363Z,32.10
2018-07-23T12:14:51.805Z,31.30
2018-07-23T12:17:20.407Z,31.40
2018-07-23T12:19:48.794Z,31.50
2018-07-23T12:22:17.235Z,32.00
2018-07-23T12:24:45.673Z,32.40
2018-07-23T12:27:14.113Z,32.60
2018-07-23T12:29:42.533Z,32.40
2018-07-23T12:32:11.091Z,32.40
2018-07-23T12:34:39.541Z,32.40
2018-07-23T12:37:08.002Z,32.70
2018-07-23T12:39:36.463Z,33.70
2018-07-23T12:42:04.924Z,33.50
2018-07-23T12:44:33.364Z,33.00
2018-07-23T12:47:01.880Z,32.70
2018-07-23T12:49:30.265Z,32.80
2018-07-23T12:51:58.701Z,33.30
2018-07-23T12:54:27.154Z,33.60
2018-07-23T12:56:55.639Z,33.40
2018-07-23T12:59:24.080Z,33.60
2018-07-23T13:01:52.566Z,33.10
2018-07-23T13:04:20.994Z,32.20
2018-07-23T13:06:49.510Z,32.20
2018-07-23T13:09:17.954Z,32.60
2018-07-23T13:11:46.455Z,32.10
2018-07-23T13:14:14.893Z,32.10
2018-07-23T13:16:43.318Z,31.90
2018-07-23T13:19:11.798Z,31.40
2018-07-23T13:21:40.257Z,31.20
2018-07-23T13:24:08.781Z,31.20
2018-07-23T13:26:37.247Z,32.00
2018-07-23T13:29:05.851Z,31.70
2018-07-23T13:31:34.353Z,32.50
2018-07-23T13:34:04.803Z,32.30
2018-07-23T13:36:33.318Z,32.10
2018-07-23T13:39:01.816Z,31.30
2018-07-23T13:41:30.249Z,30.50
2018-07-23T13:43:58.679Z,30.50
2018-07-23T13:46:27.153Z,30.20
2018-07-23T13:48:55.557Z,30.20
2018-07-23T13:51:24.017Z,30.10
2018-07-23T13:53:52.461Z,30.50
2018-07-23T13:56:20.976Z,30.00
2018-07-23T13:58:49.414Z,29.90
2018-07-23T14:01:17.918Z,30.00
2018-07-23T14:03:46.391Z,30.00
2018-07-23T14:06:14.825Z,29.70
2018-07-23T14:08:43.261Z,29.60
2018-07-23T14:11:11.714Z,29.80
2018-07-23T14:13:40.154Z,29.80
2018-07-23T14:16:08.610Z,30.00
2018-07-23T14:18:37.301Z,30.10
2018-07-23T14:23:58.399Z,29.90
2018-07-23T14:26:26.871Z,29.80
2018-07-23T14:28:55.318Z,29.70
2018-07-23T14:31:23.762Z,29.50
2018-07-23T14:33:52.220Z,29.70
2018-07-23T14:36:20.674Z,29.80
2018-07-23T14:38:49.103Z,29.90
2018-07-23T14:41:17.557Z,30.00
2018-07-23T14:43:45.985Z,29.50
2018-07-23T14:46:14.446Z,29.10
2018-07-23T14:48:42.917Z,29.10
2018-07-23T14:51:11.874Z,29.00
2018-07-23T14:53:40.349Z,28.90
2018-07-23T14:56:08.950Z,29.00
2018-07-23T14:58:38.246Z,28.80
2018-07-23T15:01:06.842Z,28.80
2018-07-23T15:03:35.292Z,28.80
2018-07-23T15:06:03.774Z,28.80
2018-07-23T15:08:32.209Z,28.90
2018-07-23T15:11:00.647Z,28.70
2018-07-23T15:13:29.146Z,28.70
2018-07-23T15:15:57.589Z,28.50
2018-07-23T15:18:26.023Z,28.40
2018-07-23T15:20:54.470Z,28.40
2018-07-23T15:23:22.949Z,28.30
2018-07-23T15:25:51.402Z,28.30
2018-07-23T15:28:19.872Z,28.30
2018-07-23T15:33:16.489Z,28.50
2018-07-23T15:35:44.934Z,28.40
2018-07-23T15:38:13.393Z,28.20
2018-07-23T15:40:41.851Z,28.00
2018-07-23T15:43:10.303Z,28.10
2018-07-23T15:45:38.946Z,28.20
2018-07-23T15:48:07.766Z,28.10
2018-07-23T15:50:36.237Z,28.20
2018-07-23T15:53:04.725Z,28.10
2018-07-23T15:55:33.832Z,28.10
2018-07-23T15:58:02.297Z,28.30
2018-07-23T16:00:30.825Z,28.30
2018-07-23T16:02:59.305Z,28.30
2018-07-23T16:05:27.810Z,28.40
2018-07-23T16:07:56.259Z,28.40
2018-07-23T16:10:25.066Z,28.40
2018-07-23T16:12:53.529Z,28.30
2018-07-23T16:15:21.998Z,28.20
2018-07-23T16:17:50.489Z,28.10
2018-07-23T16:20:18.947Z,28.00
2018-07-23T16:22:47.397Z,27.90
2018-07-23T16:25:15.847Z,27.90
2018-07-23T16:27:44.325Z,27.80
2018-07-23T16:30:12.877Z,27.80
2018-07-23T16:32:41.376Z,27.80
2018-07-23T16:35:11.093Z,27.70
2018-07-23T16:37:39.575Z,27.70
2018-07-23T16:40:08.360Z,27.60
2018-07-23T16:42:36.873Z,27.70
2018-07-23T16:45:05.679Z,27.60
2018-07-23T16:47:34.185Z,27.60
2018-07-23T16:50:02.690Z,27.70
2018-07-23T16:52:31.228Z,27.70
2018-07-23T16:54:59.697Z,27.70
2018-07-23T16:57:28.162Z,27.70
2018-07-23T16:59:56.671Z,27.60
2018-07-23T17:02:25.438Z,27.60
2018-07-23T17:04:53.895Z,27.60
2018-07-23T17:07:22.355Z,27.50
2018-07-23T17:09:51.194Z,27.50
2018-07-23T17:12:19.661Z,27.50
2018-07-23T17:14:48.097Z,27.40
2018-07-23T17:17:16.545Z,27.40
2018-07-23T17:19:44.973Z,27.40
2018-07-23T17:22:13.421Z,27.40
2018-07-23T17:24:41.917Z,27.30
2018-07-23T17:27:10.391Z,27.30
2018-07-23T17:29:38.857Z,27.40
2018-07-23T17:32:08.752Z,27.30
2018-07-23T17:34:37.401Z,27.10
2018-07-23T17:37:05.866Z,27.10
2018-07-23T17:39:34.353Z,27.00
2018-07-23T17:42:02.890Z,27.00
2018-07-23T17:44:31.382Z,27.00
2018-07-23T17:46:59.822Z,26.90
2018-07-23T17:49:28.289Z,26.90
2018-07-23T17:51:56.734Z,26.90
2018-07-23T17:54:37.495Z,26.90
2018-07-23T17:59:34.104Z,26.90
2018-07-23T18:02:02.757Z,26.80
2018-07-23T18:04:31.245Z,26.70
2018-07-23T18:06:59.717Z,26.60
2018-07-23T18:09:28.149Z,26.60
2018-07-23T18:11:56.587Z,26.50
2018-07-23T18:14:25.054Z,26.50
2018-07-23T18:16:53.584Z,26.40
2018-07-23T18:19:22.037Z,26.30
2018-07-23T18:21:50.509Z,26.20
2018-07-23T18:24:18.986Z,26.10
2018-07-23T18:26:47.465Z,26.10
2018-07-23T18:29:16.060Z,26.00
2018-07-23T18:31:44.649Z,25.80
2018-07-23T18:34:13.234Z,25.70
2018-07-23T18:36:41.800Z,25.60
2018-07-23T18:39:11.931Z,25.40
2018-07-23T18:41:40.969Z,25.20
2018-07-23T18:44:09.769Z,25.00
2018-07-23T18:46:38.348Z,24.80
2018-07-23T18:49:20.443Z,24.80
2018-07-23T18:51:50.095Z,24.60
2018-07-23T18:54:20.157Z,24.40
2018-07-23T18:56:50.915Z,24.20
2018-07-23T18:59:19.536Z,24.10
2018-07-23T19:01:49.217Z,23.90
2018-07-23T19:04:17.850Z,23.70
2018-07-23T19:06:46.465Z,23.60
2018-07-23T19:11:45.600Z,23.30
2018-07-23T19:14:15.156Z,23.10
2018-07-23T19:16:44.184Z,23.00
2018-07-23T19:19:12.909Z,22.90
2018-07-23T19:21:41.610Z,22.80
2018-07-23T19:24:10.379Z,22.70
2018-07-23T19:26:38.849Z,22.50
2018-07-23T19:29:07.289Z,22.40
2018-07-23T19:34:04.589Z,22.00
2018-07-23T19:36:33.052Z,21.90
2018-07-23T19:39:01.917Z,21.80
2018-07-23T19:41:30.834Z,21.70
2018-07-23T19:43:59.257Z,21.50
2018-07-23T19:46:27.738Z,21.40
2018-07-23T19:49:08.497Z,21.40
2018-07-23T19:51:37.102Z,21.30
2018-07-23T19:54:06.326Z,21.10
2018-07-23T19:56:34.789Z,20.90
2018-07-23T19:59:03.273Z,20.70
2018-07-23T20:01:31.781Z,20.70
2018-07-23T20:04:00.417Z,20.60
2018-07-23T20:08:58.323Z,20.50
2018-07-23T20:13:55.590Z,20.20
2018-07-23T20:16:24.089Z,20.10
2018-07-23T20:18:52.605Z,20.00
2018-07-23T20:21:21.066Z,20.00
2018-07-23T20:23:49.513Z,19.90
2018-07-23T20:26:17.977Z,19.90
2018-07-23T20:28:46.422Z,19.70
2018-07-23T20:31:14.889Z,19.70
2018-07-23T20:33:43.333Z,19.60
2018-07-23T20:36:11.788Z,19.50
2018-07-23T20:38:41.338Z,19.50
2018-07-23T20:41:09.831Z,19.40
2018-07-23T20:43:38.295Z,19.30
2018-07-23T20:46:06.881Z,19.20
2018-07-23T20:48:35.343Z,19.10
2018-07-23T20:51:04.441Z,19.00
2018-07-23T20:53:32.976Z,19.00
2018-07-23T20:56:01.430Z,18.90
2018-07-23T20:58:29.929Z,19.00
2018-07-23T21:00:58.462Z,19.00
2018-07-23T21:03:26.919Z,18.90
2018-07-23T21:05:55.373Z,18.80
2018-07-23T21:08:23.837Z,18.80
2018-07-23T21:10:52.334Z,18.70
2018-07-23T21:13:20.813Z,18.70
2018-07-23T21:15:49.288Z,18.70
2018-07-23T21:18:17.800Z,18.50
2018-07-23T21:20:46.258Z,18.50
2018-07-23T21:23:14.758Z,18.30
2018-07-23T21:25:43.254Z,18.20
2018-07-23T21:28:11.724Z,18.10
2018-07-23T21:30:40.182Z,18.10
2018-07-23T21:33:08.681Z,18.10
2018-07-23T21:35:37.149Z,18.00
2018-07-23T21:38:05.708Z,18.00
2018-07-23T21:40:34.202Z,18.00
2018-07-23T21:43:02.709Z,17.90
2018-07-23T21:45:31.190Z,17.90
2018-07-23T21:47:59.707Z,17.90
2018-07-23T21:50:28.174Z,17.80
2018-07-23T21:52:57.581Z,17.70
2018-07-23T21:55:26.071Z,17.60
2018-07-23T21:57:54.705Z,17.60
2018-07-23T22:00:23.286Z,17.60
2018-07-23T22:02:51.765Z,17.60
2018-07-23T22:05:20.306Z,17.50
2018-07-23T22:07:48.761Z,17.40
2018-07-23T22:10:17.228Z,17.50
2018-07-23T22:12:45.707Z,17.40
2018-07-23T22:15:14.197Z,17.40
2018-07-23T22:17:42.669Z,17.40
2018-07-23T22:22:39.329Z,17.30
2018-07-23T22:25:07.827Z,17.20
2018-07-23T22:27:36.298Z,17.20
2018-07-23T22:30:04.852Z,17.10
2018-07-23T22:32:33.327Z,17.10
2018-07-23T22:35:01.783Z,17.10
2018-07-23T22:37:30.241Z,17.00
2018-07-23T22:39:58.729Z,17.00
2018-07-23T22:42:27.266Z,17.00
2018-07-23T22:44:55.749Z,17.00
2018-07-23T22:47:24.214Z,17.00
2018-07-23T22:52:20.829Z,16.90
2018-07-23T22:54:49.309Z,16.90
2018-07-23T22:57:17.771Z,16.90
2018-07-23T22:59:46.265Z,17.00
2018-07-23T23:02:14.774Z,17.00
2018-07-23T23:04:43.234Z,16.90
2018-07-23T23:07:11.691Z,16.80
2018-07-23T23:09:40.185Z,16.70
2018-07-23T23:12:08.672Z,16.70
2018-07-23T23:14:37.128Z,16.60
2018-07-23T23:17:05.630Z,16.50
2018-07-23T23:19:34.089Z,16.50
2018-07-23T23:22:02.548Z,16.50
2018-07-23T23:24:30.999Z,16.50
2018-07-23T23:27:00.489Z,16.50
2018-07-23T23:29:28.942Z,16.40
2018-07-23T23:31:57.397Z,16.40
2018-07-23T23:34:25.862Z,16.40
2018-07-23T23:36:54.329Z,16.40
2018-07-23T23:39:22.783Z,16.40
2018-07-23T23:41:51.247Z,16.30
2018-07-23T23:44:19.704Z,16.30
2018-07-23T23:46:48.155Z,16.30
2018-07-23T23:49:16.662Z,16.30
2018-07-23T23:51:45.193Z,16.20
2018-07-23T23:54:13.646Z,16.10
2018-07-23T23:56:42.104Z,16.10
2018-07-23T23:59:10.549Z,16.10
